Time;durP1;ratioP1;P1;durP2;ratioP2;P2;SDS_P1;SDS_P2;PMS_P1;PMS_P2;Temp;Humidity;BMP_temperature;BMP_pressure;BME280_temperature;BME280_humidity;BME280_pressure;Samples;Min_cycle;Max_cycle;Signal;HPM_P1;HPM_P2
2022/10/04 00:02:30;;;;;;;1999.90;999.90;;;;;;;10.57;100.00;98555.97;4992513;28;20443;-74
2022/10/04 00:05:04;;;;;;;1999.90;999.90;;;;;;;10.59;100.00;98559.22;4992319;28;20023;-74
2022/10/04 00:07:36;;;;;;;1999.90;999.90;;;;;;;10.69;100.00;98559.19;4992084;28;20065;-74
2022/10/04 00:10:05;;;;;;;1999.90;999.90;;;;;;;10.71;100.00;98559.72;4990387;28;20069;-74
2022/10/04 00:12:39;;;;;;;1999.90;999.90;;;;;;;10.75;100.00;98559.97;4991987;28;20030;-74
2022/10/04 00:15:21;;;;;;;1999.90;999.90;;;;;;;10.77;100.00;98553.13;4990708;28;20541;-73
2022/10/04 00:18:24;;;;;;;1999.90;999.90;;;;;;;10.78;100.00;98556.69;4991784;28;20041;-74
2022/10/04 00:20:51;;;;;;;1999.90;999.90;;;;;;;10.69;100.00;98552.91;4991569;28;20552;-73
2022/10/04 00:23:29;;;;;;;1999.90;999.90;;;;;;;10.70;100.00;98555.38;4990397;28;20038;-73
2022/10/04 00:25:58;;;;;;;1999.90;999.90;;;;;;;10.56;100.00;98548.84;4991569;28;20057;-73
2022/10/04 00:28:24;;;;;;;1999.90;999.90;;;;;;;10.59;100.00;98564.72;4990232;28;20026;-74
2022/10/04 00:31:08;;;;;;;1999.90;999.90;;;;;;;10.54;100.00;98553.81;4991769;28;20165;-74
2022/10/04 00:33:56;;;;;;;1999.90;999.90;;;;;;;10.47;100.00;98564.22;4990417;28;20027;-74
2022/10/04 00:36:22;;;;;;;1999.90;999.90;;;;;;;10.37;100.00;98569.72;4991489;28;20491;-73
2022/10/04 00:39:11;;;;;;;1999.90;999.90;;;;;;;10.26;100.00;98564.56;4991663;28;20202;-74
2022/10/04 00:41:48;;;;;;;1999.90;999.90;;;;;;;10.22;100.00;98561.56;4999915;28;20046;-75
2022/10/04 00:44:58;;;;;;;1999.90;999.90;;;;;;;10.25;100.00;98568.38;4991537;28;20026;-74
2022/10/04 00:48:12;;;;;;;1999.90;999.90;;;;;;;10.14;100.00;98564.88;4991988;28;21328;-74
2022/10/04 00:50:42;;;;;;;1999.90;999.90;;;;;;;10.18;100.00;98565.94;4990844;28;20057;-73
2022/10/04 00:53:26;;;;;;;1999.90;999.90;;;;;;;10.19;100.00;98567.59;4989882;28;20034;-73
2022/10/04 00:55:58;;;;;;;1999.90;999.90;;;;;;;10.10;100.00;98558.28;4991006;28;20041;-74
2022/10/04 00:58:27;;;;;;;1999.90;999.90;;;;;;;10.06;100.00;98571.69;4991129;28;20415;-74
2022/10/04 01:00:54;;;;;;;1999.90;999.90;;;;;;;10.03;100.00;98565.94;4991249;28;20032;-74
2022/10/04 01:03:29;;;;;;;1999.90;999.90;;;;;;;9.89;100.00;98559.44;4991265;28;20484;-73
2022/10/04 01:05:59;;;;;;;1999.90;999.90;;;;;;;9.80;100.00;98561.09;4990800;28;20093;-74
2022/10/04 01:08:26;;;;;;;1999.90;999.90;;;;;;;9.73;100.00;98560.53;4989741;28;20041;-73
2022/10/04 01:11:00;;;;;;;1999.90;999.90;;;;;;;9.89;100.00;98559.44;4988670;28;20058;-73
2022/10/04 01:13:49;;;;;;;1999.90;999.90;;;;;;;9.71;100.00;98555.34;4977308;28;20480;-76
2022/10/04 01:16:21;;;;;;;1999.90;999.90;;;;;;;9.60;100.00;98548.25;4990756;28;20427;-74
2022/10/04 01:18:46;;;;;;;1999.90;999.90;;;;;;;9.68;100.00;98547.69;4974114;28;20023;-75
2022/10/04 01:21:18;;;;;;;1999.90;999.90;;;;;;;9.69;100.00;98550.16;4972647;28;20074;-75
2022/10/04 01:23:49;;;;;;;1999.90;999.90;;;;;;;9.56;100.00;98539.78;4989318;28;20484;-75
2022/10/04 01:26:23;;;;;;;1999.90;999.90;;;;;;;9.53;100.00;98539.53;4990513;28;20022;-75
2022/10/04 01:28:48;;;;;;;1999.90;999.90;;;;;;;9.51;100.00;98544.44;4990597;28;20030;-75
2022/10/04 01:31:15;;;;;;;1999.90;999.90;;;;;;;9.61;100.00;98541.72;4972089;28;20041;-74
2022/10/04 01:33:40;;;;;;;1999.90;999.90;;;;;;;9.52;100.00;98535.97;4970994;28;20428;-75
2022/10/04 01:36:06;;;;;;;1999.90;999.90;;;;;;;9.43;100.00;98537.63;4971196;28;20029;-75
2022/10/04 01:38:31;;;;;;;1999.90;999.90;;;;;;;9.46;100.00;98533.53;4970885;28;20369;-75
2022/10/04 01:41:01;;;;;;;1999.90;999.90;;;;;;;9.44;100.00;98542.00;4969726;28;20027;-74
2022/10/04 01:43:35;;;;;;;1999.90;999.90;;;;;;;9.27;100.00;98524.25;4970762;28;20395;-74
2022/10/04 01:46:09;;;;;;;1999.90;999.90;;;;;;;9.16;100.00;98526.16;4970924;28;20031;-74
2022/10/04 01:48:36;;;;;;;1999.90;999.90;;;;;;;9.17;100.00;98524.25;4970889;28;20081;-74
2022/10/04 01:51:17;;;;;;;1999.90;999.90;;;;;;;9.10;100.00;98529.97;4971433;28;20023;-74
2022/10/04 01:53:53;;;;;;;1999.90;999.90;;;;;;;9.12;100.00;98522.31;4976540;28;20057;-76
2022/10/04 01:56:31;;;;;;;1999.90;999.90;;;;;;;9.10;100.00;98529.97;4976295;28;20050;-75
2022/10/04 01:59:01;;;;;;;1999.90;999.90;;;;;;;9.00;100.00;98530.78;4974681;28;20042;-75
2022/10/04 02:01:33;;;;;;;1999.90;999.90;;;;;;;8.95;100.00;98535.41;4975244;28;20034;-76
2022/10/04 02:04:03;;;;;;;1999.90;999.90;;;;;;;9.01;100.00;98528.88;4974661;28;20578;-75
2022/10/04 02:06:36;;;;;;;1999.90;999.90;;;;;;;8.98;100.00;98526.69;4973161;28;20105;-75
2022/10/04 02:09:09;;;;;;;1999.90;999.90;;;;;;;9.03;100.00;98532.97;5003207;28;20025;-74
2022/10/04 02:11:36;;;;;;;1999.90;999.90;;;;;;;9.04;100.00;98536.50;5013513;28;20053;-73
2022/10/04 02:14:04;;;;;;;1999.90;999.90;;;;;;;8.95;100.00;98530.78;5013310;28;20473;-74
2022/10/04 02:16:34;;;;;;;1999.90;999.90;;;;;;;8.96;100.00;98532.41;5005263;28;20038;-75
2022/10/04 02:19:02;;;;;;;1999.90;999.90;;;;;;;8.98;100.00;98537.59;4993235;28;20480;-74
2022/10/04 02:21:28;;;;;;;1999.90;999.90;;;;;;;8.97;100.00;98535.94;4994041;28;20511;-74
2022/10/04 02:23:54;;;;;;;1999.90;999.90;;;;;;;8.87;100.00;98535.94;4992674;28;20446;-75
2022/10/04 02:26:20;;;;;;;1999.90;999.90;;;;;;;8.93;100.00;98526.66;4993815;28;20113;-75
2022/10/04 02:28:45;;;;;;;1999.90;999.90;;;;;;;8.94;100.00;98531.03;4993516;28;20447;-75
2022/10/04 02:33:57;;;;;;;1999.90;999.90;;;;;;;8.90;100.00;98536.22;4993555;28;20533;-75
2022/10/04 02:36:28;;;;;;;1999.90;999.90;;;;;;;8.85;100.00;98549.84;4994785;28;20034;-75
2022/10/04 02:39:14;;;;;;;1999.90;999.90;;;;;;;8.76;100.00;98542.47;4996829;28;20030;-75
2022/10/04 02:42:02;;;;;;;1999.90;999.90;;;;;;;8.71;100.00;98542.47;4993512;28;20027;-74
2022/10/04 02:44:41;;;;;;;1999.90;999.90;;;;;;;8.76;100.00;98540.56;4993498;28;20495;-75
2022/10/04 02:47:20;;;;;;;1999.90;999.90;;;;;;;8.77;100.00;98535.94;4994866;28;20030;-74
2022/10/04 02:49:49;;;;;;;1999.90;999.90;;;;;;;8.68;100.00;98532.88;4993428;28;20026;-75
2022/10/04 02:52:19;;;;;;;1999.90;999.90;;;;;;;8.56;100.00;98532.31;4993552;28;20365;-76
2022/10/04 02:54:54;;;;;;;1999.90;999.90;;;;;;;8.61;100.00;98533.13;4993416;28;20129;-75
2022/10/04 02:57:22;;;;;;;1999.90;999.90;;;;;;;8.57;100.00;98537.50;4992074;28;20065;-74
2022/10/04 02:59:48;;;;;;;1999.90;999.90;;;;;;;8.58;100.00;98530.16;4991697;28;20026;-73
2022/10/04 03:02:29;;;;;;;1999.90;999.90;;;;;;;8.57;100.00;98526.59;4993783;28;20031;-74
2022/10/04 03:05:00;;;;;;;1999.90;999.90;;;;;;;8.43;100.00;98524.63;5010795;28;20046;-75
2022/10/04 03:07:26;;;;;;;1999.90;999.90;;;;;;;8.47;100.00;98521.09;5011982;28;20414;-74
2022/10/04 03:09:51;;;;;;;1999.90;999.90;;;;;;;8.33;100.00;98519.94;5012642;28;20022;-75
2022/10/04 03:12:17;;;;;;;1999.90;999.90;;;;;;;8.23;100.00;98519.09;5000200;28;20040;-74
2022/10/04 03:14:44;;;;;;;1999.90;999.90;;;;;;;8.16;100.00;98527.50;5011580;28;20041;-74
2022/10/04 03:17:13;;;;;;;1999.90;999.90;;;;;;;8.16;100.00;98521.22;5012524;28;20029;-75
2022/10/04 03:19:38;;;;;;;1999.90;999.90;;;;;;;8.29;100.00;98532.50;5012362;28;20041;-75
2022/10/04 03:22:10;;;;;;;1999.90;999.90;;;;;;;8.28;100.00;98517.22;5011302;28;20026;-74
2022/10/04 03:24:45;;;;;;;1999.90;999.90;;;;;;;8.31;100.00;98530.31;5012400;28;20056;-75
2022/10/04 03:27:16;;;;;;;1999.90;999.90;;;;;;;8.35;100.00;98536.88;5012540;28;20026;-74
2022/10/04 03:29:42;;;;;;;1999.90;999.90;;;;;;;8.34;100.00;98535.22;5012272;28;20037;-74
2022/10/04 03:32:12;;;;;;;1999.90;999.90;;;;;;;8.30;100.00;98531.38;5012845;28;20088;-75
2022/10/04 03:34:42;;;;;;;1999.90;999.90;;;;;;;8.29;100.00;98535.22;5012141;28;20034;-75
2022/10/04 03:37:15;;;;;;;1999.90;999.90;;;;;;;8.30;100.00;98545.00;5012310;28;20034;-75
2022/10/04 03:39:46;;;;;;;1999.90;999.90;;;;;;;8.37;100.00;98536.59;5011543;28;20030;-76
2022/10/04 03:42:19;;;;;;;1999.90;999.90;;;;;;;8.42;100.00;98539.34;4995905;28;20026;-76
2022/10/04 03:44:46;;;;;;;1999.90;999.90;;;;;;;8.24;100.00;98526.19;4994689;28;20027;-76
2022/10/04 03:47:15;;;;;;;1999.90;999.90;;;;;;;8.27;100.00;98525.66;4991223;28;20030;-75
2022/10/04 03:49:42;;;;;;;1999.90;999.90;;;;;;;8.32;100.00;98521.06;4992880;28;20061;-76
2022/10/04 03:52:17;;;;;;;1999.90;999.90;;;;;;;8.24;100.00;98524.25;4992751;28;20041;-77
2022/10/04 03:54:43;;;;;;;1999.90;999.90;;;;;;;8.19;100.00;98515.25;4992746;28;20033;-76
2022/10/04 03:57:11;;;;;;;1999.90;999.90;;;;;;;8.21;100.00;98516.59;4992840;28;20121;-77
2022/10/04 03:59:37;;;;;;;1999.90;999.90;;;;;;;8.32;100.00;98522.97;4992738;28;20053;-75
2022/10/04 04:02:21;;;;;;;1999.90;999.90;;;;;;;8.18;100.00;98528.03;4994502;28;20487;-77
2022/10/04 04:05:08;;;;;;;1999.90;999.90;;;;;;;8.16;100.00;98535.66;4996657;28;20022;-76
2022/10/04 04:07:41;;;;;;;1999.90;999.90;;;;;;;8.14;100.00;98543.28;4992727;28;20084;-76
2022/10/04 04:10:20;;;;;;;1999.90;999.90;;;;;;;8.17;100.00;98537.31;4991167;28;20022;-75
2022/10/04 04:12:55;;;;;;;1999.90;999.90;;;;;;;8.12;100.00;98531.81;4992271;28;20034;-75
2022/10/04 04:15:21;;;;;;;1999.90;999.90;;;;;;;8.18;100.00;98538.94;4992014;28;20034;-74
2022/10/04 04:17:51;;;;;;;1999.90;999.90;;;;;;;8.19;100.00;98535.13;4991843;28;20040;-75
2022/10/04 04:20:33;;;;;;;1999.90;999.90;;;;;;;8.06;100.00;98539.16;4992155;28;20030;-76
2022/10/04 04:23:14;;;;;;;1999.90;999.90;;;;;;;8.13;100.00;98543.53;4991988;28;20105;-76
2022/10/04 04:25:46;;;;;;;1999.90;999.90;;;;;;;8.11;100.00;98541.09;4993607;28;20413;-76
2022/10/04 04:28:26;;;;;;;1999.90;999.90;;;;;;;8.06;100.00;98539.16;5011585;28;20030;-75
2022/10/04 04:31:20;;;;;;;1999.90;999.90;;;;;;;8.06;100.00;98535.59;5013223;28;20116;-75
2022/10/04 04:33:58;;;;;;;1999.90;999.90;;;;;;;8.02;100.00;98539.94;5011785;28;20029;-75
2022/10/04 04:36:24;;;;;;;1999.90;999.90;;;;;;;8.09;100.00;98541.34;5011581;28;20038;-76
2022/10/04 04:41:34;;;;;;;1999.90;999.90;;;;;;;7.97;100.00;98556.28;5011642;28;20045;-74
2022/10/04 04:44:00;;;;;;;1999.90;999.90;;;;;;;7.86;100.00;98569.00;5010294;28;20045;-76
2022/10/04 04:46:27;;;;;;;1999.90;999.90;;;;;;;7.87;100.00;98565.19;5000955;28;20031;-75
2022/10/04 04:49:00;;;;;;;1999.90;999.90;;;;;;;7.85;100.00;98566.53;4991705;28;20424;-75
2022/10/04 04:51:26;;;;;;;1999.90;999.90;;;;;;;7.85;100.00;98569.28;4991803;28;20439;-75
2022/10/04 04:53:54;;;;;;;1999.90;999.90;;;;;;;7.83;100.00;98563.28;4991749;28;20031;-76
2022/10/04 04:56:24;;;;;;;1999.90;999.90;;;;;;;7.87;100.00;98567.09;4991714;28;20062;-75
2022/10/04 04:58:52;;;;;;;1999.90;999.90;;;;;;;7.86;100.00;98562.75;4991364;28;20036;-76
2022/10/04 05:01:40;;;;;;;1999.90;999.90;;;;;;;7.93;100.00;98569.59;4991404;28;20468;-76
2022/10/04 05:04:11;;;;;;;1999.90;999.90;;;;;;;7.95;100.00;98577.50;4985717;28;20035;-76
2022/10/04 05:06:39;;;;;;;1999.90;999.90;;;;;;;8.05;100.00;98575.66;4982183;28;20043;-75
2022/10/04 05:09:33;;;;;;;1999.90;999.90;;;;;;;8.24;100.00;98580.69;4971591;28;20133;-76
2022/10/04 05:12:18;;;;;;;1999.90;999.90;;;;;;;8.28;100.00;98560.81;4993941;28;20034;-78
2022/10/04 05:14:51;;;;;;;1999.90;999.90;;;;;;;8.46;100.00;98576.72;4991033;28;20037;-78
2022/10/04 05:17:32;;;;;;;1999.90;999.90;;;;;;;8.54;100.00;98575.38;5008642;28;20026;-78
2022/10/04 05:20:01;;;;;;;1999.90;999.90;;;;;;;8.64;100.00;98580.88;5009536;28;20064;-78
2022/10/04 05:22:28;;;;;;;1999.90;999.90;;;;;;;8.69;100.00;98580.91;5001962;28;20026;-78
2022/10/04 05:25:01;;;;;;;1999.90;999.90;;;;;;;8.72;100.00;98587.72;4999714;28;20026;-76
2022/10/04 05:27:39;;;;;;;1999.90;999.90;;;;;;;8.76;100.00;98597.84;4996742;28;20121;-77
2022/10/04 05:30:08;;;;;;;1999.90;999.90;;;;;;;8.88;100.00;98606.59;4989866;28;20125;-79
2022/10/04 05:32:36;;;;;;;1999.90;999.90;;;;;;;8.91;100.00;98607.97;4994144;28;20109;-79
2022/10/04 05:35:01;;;;;;;1999.90;999.90;;;;;;;8.83;100.00;98603.88;4999926;28;20530;-75
2022/10/04 05:37:52;;;;;;;1999.90;999.90;;;;;;;8.89;100.00;98613.69;5001780;28;20022;-77
2022/10/04 05:40:32;;;;;;;1999.90;999.90;;;;;;;9.02;100.00;98612.38;5004286;28;20476;-76
2022/10/04 05:42:58;;;;;;;1999.90;999.90;;;;;;;8.98;100.00;98608.53;5010449;28;20029;-76
2022/10/04 05:45:27;;;;;;;1999.90;999.90;;;;;;;8.97;100.00;98617.78;5009440;28;20434;-77
2022/10/04 05:47:54;;;;;;;1999.90;999.90;;;;;;;9.02;100.00;98615.91;5010370;28;20065;-76
2022/10/04 05:50:29;;;;;;;1999.90;999.90;;;;;;;8.94;100.00;98612.88;5007206;28;20030;-76
2022/10/04 05:53:18;;;;;;;1999.90;999.90;;;;;;;8.76;100.00;98610.66;4990717;28;20034;-79
2022/10/04 05:55:57;;;;;;;1999.90;999.90;;;;;;;8.89;100.00;98601.97;4993147;28;20042;-75
2022/10/04 05:58:41;;;;;;;1999.90;999.90;;;;;;;8.82;100.00;98609.56;5003369;28;20049;-75
2022/10/04 06:01:18;;;;;;;1999.90;999.90;;;;;;;8.78;100.00;98600.28;4988610;28;20038;-75
2022/10/04 06:03:58;;;;;;;1999.90;999.90;;;;;;;8.92;100.00;98609.63;4996289;28;20034;-77
2022/10/04 06:06:35;;;;;;;1999.90;999.90;;;;;;;8.80;100.00;98606.31;5009243;28;20049;-74
2022/10/04 06:09:53;;;;;;;1999.90;999.90;;;;;;;8.92;100.00;98604.16;4990137;28;20035;-75
2022/10/04 06:12:29;;;;;;;1999.90;999.90;;;;;;;8.97;100.00;98602.25;4931950;28;20043;-75
2022/10/04 06:15:16;;;;;;;1999.90;999.90;;;;;;;8.87;100.00;98606.84;4976697;28;20031;-75
2022/10/04 06:18:23;;;;;;;1999.90;999.90;;;;;;;8.86;100.00;98603.31;4971935;28;20075;-76
2022/10/04 06:21:21;;;;;;;1999.90;999.90;;;;;;;8.99;100.00;98607.47;4975821;28;20027;-84
2022/10/04 06:24:07;;;;;;;1999.90;999.90;;;;;;;9.13;100.00;98614.03;4987703;28;20035;-78
2022/10/04 06:26:52;;;;;;;;;;;;;;;9.36;100.00;98624.44;4991851;28;20046;-76
2022/10/04 06:29:26;;;;;;;1999.90;999.90;;;;;;;9.43;100.00;98614.06;5007799;28;19917;-76
2022/10/04 06:32:09;;;;;;;1999.90;999.90;;;;;;;9.58;100.00;98625.03;5000111;28;20022;-76
2022/10/04 06:34:59;;;;;;;1999.90;999.90;;;;;;;9.68;100.00;98624.19;4976404;28;20037;-76
2022/10/04 06:37:47;;;;;;;1999.90;999.90;;;;;;;9.79;100.00;98630.47;4999286;28;20014;-77
2022/10/04 06:40:28;;;;;;;1999.90;999.90;;;;;;;9.83;100.00;98634.31;4996546;28;20030;-77
2022/10/04 06:43:50;;;;;;;1999.90;999.90;;;;;;;9.85;100.00;98645.78;4994685;28;20109;-77
2022/10/04 06:46:27;;;;;;;1999.90;999.90;;;;;;;9.97;100.00;98654.50;4997676;28;20026;-78
2022/10/04 06:49:08;;;;;;;1999.90;999.90;;;;;;;10.08;100.00;98639.75;5004714;28;20042;-77
2022/10/04 06:51:55;;;;;;;1999.90;999.90;;;;;;;10.13;100.00;98635.13;5012513;28;20384;-77
2022/10/04 06:54:39;;;;;;;1999.90;999.90;;;;;;;10.18;100.00;98645.22;5011814;28;20030;-77
2022/10/04 06:57:14;;;;;;;1999.90;999.90;;;;;;;10.26;100.00;98644.69;5013153;28;20033;-77
2022/10/04 06:59:43;;;;;;;1999.90;999.90;;;;;;;10.19;100.00;98642.22;5013120;28;20109;-76
2022/10/04 07:02:16;;;;;;;1999.90;999.90;;;;;;;10.56;100.00;98646.50;5013539;28;20026;-76
2022/10/04 07:05:37;;;;;;;1999.90;999.90;;;;;;;10.74;100.00;98652.19;5013300;28;20408;-77
2022/10/04 07:08:46;;;;;;;1999.90;999.90;;;;;;;10.63;100.00;98642.41;5011489;28;20046;-77
2022/10/04 07:11:42;;;;;;;1999.90;999.90;;;;;;;10.72;100.00;98650.84;5011735;28;20042;-77
2022/10/04 07:14:29;;;;;;;1999.90;999.90;;;;;;;10.83;100.00;98652.47;5012911;28;20484;-77
2022/10/04 07:17:02;;;;;;;1999.90;999.90;;;;;;;10.94;100.00;98648.56;5011619;28;20430;-77
2022/10/04 07:19:37;;;;;;;1999.90;999.90;;;;;;;10.95;100.00;98654.88;5012991;28;20475;-75
2022/10/04 07:22:05;;;;;;;1999.90;999.90;;;;;;;10.64;100.00;98648.69;5012850;28;20026;-77
2022/10/04 07:24:57;;;;;;;1999.90;999.90;;;;;;;10.65;100.00;98650.34;5012904;28;20422;-77
2022/10/04 07:27:29;;;;;;;1999.90;999.90;;;;;;;10.97;100.00;98667.16;5011612;28;20038;-77
2022/10/04 07:29:58;;;;;;;1999.90;999.90;;;;;;;11.13;100.00;98660.53;5012999;28;20029;-77
2022/10/04 07:32:28;;;;;;;1999.90;999.90;;;;;;;11.35;100.00;98670.25;5013080;28;20415;-77
2022/10/04 07:35:12;;;;;;;1999.90;999.90;;;;;;;11.72;100.00;98670.59;5012606;28;20483;-76
2022/10/04 07:38:14;;;;;;;1999.90;999.90;;;;;;;12.25;100.00;98685.25;5012549;28;20522;-76
2022/10/04 07:40:45;;;;;;;1999.90;999.90;;;;;;;12.10;100.00;98683.47;4992087;28;20404;-77
2022/10/04 07:43:25;;;;;;;1999.90;999.90;;;;;;;12.46;100.00;98678.47;4987990;28;20086;-76
2022/10/04 07:46:01;;;;;;;1999.90;999.90;;;;;;;12.57;100.00;98673.69;4999483;28;20069;-76
2022/10/04 07:48:27;;;;;;;1999.90;999.90;;;;;;;12.97;100.00;98658.72;5000656;28;20022;-78
2022/10/04 07:51:20;;;;;;;1999.90;999.90;;;;;;;13.47;100.00;98663.53;5002020;28;20084;-77
2022/10/04 07:54:15;;;;;;;1999.90;999.90;;;;;;;13.26;100.00;98679.50;5000864;28;20058;-76
2022/10/04 07:56:51;;;;;;;1999.90;999.90;;;;;;;13.18;100.00;98674.66;5006071;28;20019;-74
2022/10/04 07:59:35;;;;;;;1999.90;999.90;;;;;;;14.10;100.00;98679.63;5009446;28;20032;-75
2022/10/04 08:02:21;;;;;;;1999.90;999.90;;;;;;;15.54;100.00;98690.09;4997475;28;20044;-75
2022/10/04 08:05:00;;;;;;;1999.90;999.90;;;;;;;15.53;100.00;98691.25;5003527;28;20712;-75
2022/10/04 08:07:45;;;;;;;1999.90;999.90;;;;;;;18.13;98.55;98703.00;5000461;28;20065;-76
2022/10/04 08:10:24;;;;;;;1999.90;999.90;;;;;;;18.62;82.33;98692.53;5000183;28;20029;-76
2022/10/04 08:13:19;;;;;;;1999.90;999.90;;;;;;;17.81;85.20;98695.16;4995263;28;20030;-76
2022/10/04 08:15:45;;;;;;;1999.90;999.90;;;;;;;16.78;91.92;98685.72;4985940;28;20038;-76
2022/10/04 08:18:35;;;;;;;1999.90;999.90;;;;;;;18.02;83.00;98687.84;5002269;28;20537;-76
2022/10/04 08:21:06;;;;;;;1999.90;999.90;;;;;;;18.41;79.63;98705.41;5004015;28;20030;-76
2022/10/04 08:23:34;;;;;;;1999.90;999.90;;;;;;;18.25;78.08;98698.75;4990997;28;20106;-76
2022/10/04 08:26:02;;;;;;;1999.90;999.90;;;;;;;19.57;72.41;98701.28;4997152;28;20029;-76
2022/10/04 08:31:30;;;;;;;1999.90;999.90;;;;;;;22.78;58.28;98697.53;4996289;28;20034;-76
2022/10/04 08:34:20;;;;;;;1999.90;999.90;;;;;;;24.07;53.79;98703.13;4999785;28;20080;-74
2022/10/04 08:37:04;;;;;;;1999.90;999.90;;;;;;;23.66;54.02;98704.59;5001617;28;20054;-75
2022/10/04 08:39:56;;;;;;;1999.90;999.90;;;;;;;22.02;58.42;98701.28;4996052;28;20088;-75
2022/10/04 08:42:40;;;;;;;1999.90;999.90;;;;;;;20.06;66.41;98683.78;4995424;28;20123;-75
2022/10/04 08:45:45;;;;;;;1999.90;999.90;;;;;;;17.96;76.68;98663.41;5003537;28;20041;-75
2022/10/04 08:48:21;;;;;;;1999.90;999.90;;;;;;;19.74;69.80;98659.53;4986090;28;20087;-75
2022/10/04 08:51:21;;;;;;;1999.90;999.90;;;;;;;19.64;70.08;98659.94;5001576;28;20116;-75
2022/10/04 08:54:02;;;;;;;1999.90;999.90;;;;;;;21.34;62.81;98683.59;4990892;28;20046;-75
2022/10/04 08:56:42;;;;;;;1999.90;999.90;;;;;;;20.35;66.13;98670.97;4998729;28;20030;-75
2022/10/04 08:59:19;;;;;;;1999.90;999.90;;;;;;;20.87;64.10;98674.00;4998754;28;20060;-75
2022/10/04 09:02:11;;;;;;;1999.90;999.90;;;;;;;19.84;68.21;98669.41;4997221;28;20097;-76
2022/10/04 09:05:01;;;;;;;1999.90;999.90;;;;;;;20.72;63.66;98679.09;5000573;28;20034;-75
2022/10/04 09:08:04;;;;;;;1999.90;999.90;;;;;;;18.88;70.01;98667.50;5000266;28;20108;-75
2022/10/04 09:11:07;;;;;;;1999.90;999.90;;;;;;;18.00;74.93;98651.38;4997256;28;20034;-76
2022/10/04 09:13:57;;;;;;;1999.90;999.90;;;;;;;18.96;71.86;98672.19;5000394;28;20033;-75
2022/10/04 09:17:01;;;;;;;1999.90;999.90;;;;;;;17.12;78.59;98674.81;4997988;28;20473;-75
2022/10/04 09:19:32;;;;;;;1999.90;999.90;;;;;;;16.97;83.65;98678.00;4997037;28;20542;-75
2022/10/04 09:22:41;;;;;;;1999.90;999.90;;;;;;;17.65;80.34;98680.16;4995079;28;20027;-75
2022/10/04 09:25:15;;;;;;;1999.90;999.90;;;;;;;17.45;81.12;98666.91;4993540;28;20526;-75
2022/10/04 09:28:12;;;;;;;1999.90;999.90;;;;;;;17.95;78.73;98665.34;4996197;28;20165;-75
2022/10/04 09:31:15;;;;;;;1999.90;999.90;;;;;;;17.44;80.28;98665.28;4991171;28;20037;-75
2022/10/04 09:33:58;;;;;;;1999.90;999.90;;;;;;;17.11;82.33;98667.63;4996155;28;20102;-76
2022/10/04 09:36:27;;;;;;;1999.90;999.90;;;;;;;17.27;81.45;98673.53;4996988;28;20026;-74
2022/10/04 09:39:13;;;;;;;1999.90;999.90;;;;;;;16.92;83.33;98676.19;4998602;28;20026;-75
2022/10/04 09:41:53;;;;;;;1999.90;999.90;;;;;;;16.01;89.75;98658.38;4995952;28;20491;-75
2022/10/04 09:44:44;;;;;;;1999.90;999.90;;;;;;;16.18;91.35;98657.72;4981838;28;20483;-77
2022/10/04 09:47:30;;;;;;;1999.90;999.90;;;;;;;16.43;87.24;98655.13;4983138;28;20038;-77
2022/10/04 09:50:16;;;;;;;;;;;;;;;16.90;84.69;98661.88;4972652;28;20035;-76
2022/10/04 09:53:15;;;;;;;1999.90;999.90;;;;;;;17.25;83.00;98657.28;4971321;28;19922;-77
2022/10/04 09:56:00;;;;;;;1999.90;999.90;;;;;;;17.53;78.68;98666.13;4969655;28;20031;-77
2022/10/04 09:58:54;;;;;;;1999.90;999.90;;;;;;;16.43;83.84;98659.81;4973424;28;20106;-76
2022/10/04 10:01:32;;;;;;;1999.90;999.90;;;;;;;16.47;83.89;98655.31;4974612;28;20039;-77
2022/10/04 10:04:18;;;;;;;1999.90;999.90;;;;;;;16.77;79.73;98661.97;4972823;28;20113;-76
2022/10/04 10:06:48;;;;;;;1999.90;999.90;;;;;;;16.45;78.51;98657.53;4971231;28;20043;-76
2022/10/04 10:15:21;;;;;;;1999.90;999.90;;;;;;;15.52;78.27;98643.56;4971961;28;20531;-77
2022/10/04 10:18:26;;;;;;;1999.90;999.90;;;;;;;15.53;79.80;98647.13;4974970;28;20026;-76
2022/10/04 10:21:11;;;;;;;1999.90;999.90;;;;;;;15.47;80.86;98642.84;4971081;28;20039;-77
2022/10/04 10:23:45;;;;;;;1999.90;999.90;;;;;;;15.68;80.76;98635.75;4974999;28;20042;-76
2022/10/04 10:26:43;;;;;;;1999.90;999.90;;;;;;;16.20;79.39;98642.44;4974975;28;20038;-75
2022/10/04 10:29:36;;;;;;;1999.90;999.90;;;;;;;16.24;78.64;98648.97;4981020;28;20027;-77
2022/10/04 10:32:20;;;;;;;1999.90;999.90;;;;;;;16.38;78.95;98651.69;4978867;28;20035;-77
2022/10/04 10:34:45;;;;;;;1999.90;999.90;;;;;;;16.02;81.10;98652.56;4974823;28;21177;-77
2022/10/04 10:37:14;;;;;;;1999.90;999.90;;;;;;;16.63;79.32;98659.31;4973661;28;20027;-76
2022/10/04 10:40:00;;;;;;;1999.90;999.90;;;;;;;16.67;79.05;98667.75;4974976;28;20090;-77
2022/10/04 10:42:44;;;;;;;1999.90;999.90;;;;;;;16.74;79.86;98657.09;4974703;28;20039;-77
2022/10/04 10:45:37;;;;;;;1999.90;999.90;;;;;;;16.57;79.34;98646.78;4974901;28;20074;-77
2022/10/04 10:48:21;;;;;;;1999.90;999.90;;;;;;;16.20;79.90;98655.44;4974736;28;20492;-76
2022/10/04 10:50:59;;;;;;;1999.90;999.90;;;;;;;16.43;77.36;98662.59;4974512;28;20065;-77
2022/10/04 10:53:45;;;;;;;1999.90;999.90;;;;;;;16.54;79.34;98653.72;4973101;28;20026;-76
2022/10/04 10:56:29;;;;;;;;;;;;;;;16.93;76.28;98652.94;4974798;28;20114;-76
2022/10/04 10:59:10;;;;;;;1999.90;999.90;;;;;;;17.08;72.76;98646.16;4973111;28;19914;-76
2022/10/04 11:02:04;;;;;;;1999.90;999.90;;;;;;;17.62;69.12;98645.66;4974230;28;20441;-77
2022/10/04 11:04:48;;;;;;;1999.90;999.90;;;;;;;18.76;62.42;98645.22;4974414;28;20058;-77
2022/10/04 11:07:19;;;;;;;1999.90;999.90;;;;;;;18.47;63.33;98643.13;4974067;28;20149;-77
2022/10/04 11:10:03;;;;;;;1999.90;999.90;;;;;;;18.00;62.18;98645.00;4974182;28;20110;-76
2022/10/04 11:12:40;;;;;;;1999.90;999.90;;;;;;;17.63;64.29;98629.88;4973863;28;20027;-76
2022/10/04 11:15:35;;;;;;;1999.90;999.90;;;;;;;17.85;62.86;98631.66;4974403;28;20369;-76
2022/10/04 11:18:16;;;;;;;1999.90;999.90;;;;;;;17.78;61.65;98632.16;4974119;28;20038;-77
2022/10/04 11:21:15;;;;;;;1999.90;999.90;;;;;;;18.73;59.99;98638.38;4973880;28;20038;-77
2022/10/04 11:24:08;;;;;;;1999.90;999.90;;;;;;;19.02;59.00;98637.56;4974015;28;20031;-76
2022/10/04 11:27:12;;;;;;;1999.90;999.90;;;;;;;19.03;56.50;98630.88;4972875;28;20483;-76
2022/10/04 11:29:56;;;;;;;1999.90;999.90;;;;;;;19.42;54.39;98629.72;4974022;28;20050;-77
2022/10/04 11:32:59;;;;;;;1999.90;999.90;;;;;;;19.50;53.67;98620.53;4980821;28;20070;-77
2022/10/04 11:35:37;;;;;;;1999.90;999.90;;;;;;;19.52;53.39;98620.97;4977806;28;20045;-77
2022/10/04 11:38:08;;;;;;;1999.90;999.90;;;;;;;19.98;53.23;98617.19;4976635;28;20042;-76
2022/10/04 11:41:02;;;;;;;1999.90;999.90;;;;;;;19.20;57.01;98606.63;4973438;28;20487;-78
2022/10/04 11:44:02;;;;;;;1999.90;999.90;;;;;;;19.09;58.03;98607.38;5008679;28;20025;-76
2022/10/04 11:46:32;;;;;;;1999.90;999.90;;;;;;;18.87;57.64;98602.91;5008752;28;20494;-77
2022/10/04 11:49:19;;;;;;;1999.90;999.90;;;;;;;19.73;56.83;98596.84;4990565;28;20033;-76
2022/10/04 11:52:21;;;;;;;1999.90;999.90;;;;;;;19.30;60.21;98599.06;4992977;28;20044;-76
2022/10/04 11:55:24;;;;;;;1999.90;999.90;;;;;;;18.31;62.84;98590.22;4983040;28;20045;-78
2022/10/04 11:57:56;;;;;;;1999.90;999.90;;;;;;;18.55;62.86;98586.91;4993246;28;20483;-77
2022/10/04 12:00:25;;;;;;;1999.90;999.90;;;;;;;18.09;65.05;98579.34;4994058;28;20085;-77
2022/10/04 12:03:29;;;;;;;1999.90;999.90;;;;;;;17.90;67.18;98576.94;4992171;28;20022;-79